Raúl Rodríguez

Recruteur - Zaragoza
20 Nov 2027
Samedi
Processus

Personnalité

Adaptabilité (4) Ambition (6) Controverse (5) Loyauté (4) Pression (7) Professionnalisme (20) Sportivité (3) Tempérament (8)

Profil

Style d'entraînement Démocratique
Diplôme Continental A
Détermination 9
Gestion des joueurs 9
Motivation 12
Discipline 4
Satisfaction professionnelle
100%
Fatigue
0%
Rôle Recruteur
Salaire 91.3K p/s
Contrat 14.03.2029

Performance

Comportement Bon
Efficacité de l'entraînement
48%
Développement des joueurs
40%
Prévention des blessures
60%
Mise en place tactique
55%

Événements récents

A participé à une réunion de recrutement 7j
A recommandé une cible de transfert 7j
A observé un match 7j
A participé à une réunion de recrutement 14j
A recommandé une cible de transfert 14j
A observé un match 14j
A recommandé une cible de transfert 21j
A observé un match 21j

Suivi en cours

66
Joueur Club Statut Capacité Confiance Observé Dernière observation Dernier vote
Camilo Rey Domenech Racing Club Actif 123 / 119 40% 1 07.05.2027 -
Samuel Lucero Defensa y Justicia Actif 112 / 117 40% 1 07.05.2027 -
Toni Tamarit Alverca Actif 114 / 118 40% 5 06.05.2027 -
Pietro Reggiori Pro Patria Actif 93 / 102 40% 1 06.05.2027 -
Felipe Obradovich Gimnasia La Plata Actif 106 / 122 40% 1 06.05.2027 -
Louis Leroux FC Nantes Actif 120 / 125 40% 2 05.05.2027 -
Christos Mouzakitis Hull City Actif 131 / 132 40% 2 03.05.2027 -
João Simões Sporting CP Actif 125 / 143 40% 1 03.05.2027 -
Celías Ingenthron Platense Perdu 107 / 121 40% 1 03.05.2027 -
Izan Merino Málaga Actif 115 / 124 40% 1 28.04.2027 -
Tiago Freitas Benfica Actif 117 / 121 40% 1 28.04.2027 -
Abraham Paintsil Hasaacas Actif 94 / 90 40% 1 28.04.2027 -
Yusi Alavés Actif 136 / 132 40% 1 24.04.2027 -
George Brown Sheffield Wednesday Actif 102 / 108 40% 3 08.04.2027 -
Jeffrey Adjei Wa All Stars Actif 81 / 84 40% 1 08.04.2027 -
Lorenzo De Leo Renate Actif 95 / 95 40% 2 07.04.2027 -
Borna Knezović Casarano Actif 100 / 107 40% 1 07.04.2027 -
Antonio Blanco Alavés Actif 140 / 144 40% 2 06.04.2027 -
Ramón Juárez Club America Actif 126 / 141 40% 2 06.04.2027 -
Darlvin Yeboah Bechem United Actif 72 / 80 40% 1 06.04.2027 -
Oscar Schwartau Norwich City Actif 126 / 125 40% 2 04.04.2027 -
Olívio Tomé Benfica Actif 103 / 109 40% 2 04.04.2027 -
Omar El Hilali Espanyol Actif 158 / 155 40% 1 04.04.2027 -
Jofre Torrents Ajax Actif 127 / 130 40% 1 04.04.2027 -
Dramane Kamagaté USM Alger Actif 107 / 102 40% 1 02.04.2027 -
Daniel Awuni Aduana Stars Actif 96 / 84 40% 3 01.04.2027 -
Bazoumana Touré Newcastle United Actif 135 / 143 40% 1 01.04.2027 -
Ethan Galbraith Swansea City Actif 136 / 131 40% 1 31.03.2027 -
Ramón Valladolid Actif 132 / 134 40% 1 31.03.2027 -
Guille Rosas Gijón Actif 135 / 143 40% 1 29.03.2027 -
Víctor Guzmán Monterrey Actif 124 / 140 40% 1 29.03.2027 -
Adrià Altimira Deportivo La Coruña Actif 142 / 135 40% 1 29.03.2027 -
Luke Baartman Bidvest Wits Actif 110 / 117 40% 2 28.03.2027 -
Lander Astiazarán Real Sociedad Actif 105 / 109 67% 2 27.03.2027 -
Benjamin Tsivanyo Aduana Stars Actif 93 / 97 40% 1 27.03.2027 -
Valery Académico de Viseu Actif 126 / 116 40% 2 26.03.2027 -
Pol Lozano Espanyol Actif 145 / 133 40% 1 26.03.2027 -
Franco Romero Toluca Actif 116 / 132 40% 1 25.03.2027 -
Juanlu Bournemouth Actif 148 / 148 40% 1 25.03.2027 -
Xavi Sintes Estoril Praia Actif 116 / 117 40% 1 22.03.2027 -
Pau Navarro Villarreal Actif 139 / 143 40% 1 21.03.2027 -
Jacob Greaves Ipswich Town Actif 134 / 137 40% 1 21.03.2027 -
Gorka Gorosabel Real Sociedad Actif 104 / 118 67% 1 20.03.2027 -
Nathan Collins Brentford Actif 154 / 148 40% 1 19.03.2027 -
Aarón Mejía Tijuana Actif 117 / 118 40% 1 19.03.2027 -
Álex Valle Como Actif 132 / 138 40% 1 19.03.2027 -
Dilan Godoy Vélez Actif 111 / 109 40% 3 15.03.2027 -
Sidiki Chérif Coventry City Actif 120 / 135 40% 1 15.03.2027 -
Mathys Tel Stade Rennais Actif 153 / 146 40% 3 14.03.2027 -
Xavier Biscayzacú Sporting CP Actif 120 / 128 40% 2 08.03.2027 -
Oumar Camara Vitoria Guimaraes Actif 128 / 132 40% 3 08.03.2027 -
Jones El-Abdellaoui Celta Actif 124 / 136 40% 1 08.03.2027 -
Jan Virgili Club Brugge Actif 132 / 134 40% 1 07.03.2027 -
Facundo Salinas Vélez Actif 87 / 103 40% 1 02.03.2027 -
Franco Sassone Defensores Actif 90 / 98 40% 1 24.02.2027 -
Dani Ángel Peterborough United Actif 90 / 101 40% 2 22.02.2027 -
Senny Mayulu Paris Saint-Germain Actif 144 / 150 40% 1 22.02.2027 -
Miloš Jovičić Zabbar St. Patrick Actif 94 / 92 40% 1 20.02.2027 -
Ognjen Bondžulić Mladost Lucani Actif 88 / 98 40% 1 14.02.2027 -
Enzo Taborda Independiente Actif 103 / 116 40% 1 12.02.2027 -
Nahuel Maldonado Huracán Actif 87 / 103 40% 1 05.02.2027 -
Christian Carracedo Córdoba Actif 118 / 132 65% 1 11.01.2027 Approuver
Román Fernández Atlético Tucumán Actif 101 / 103 40% 1 09.12.2026 -
Dylan Salvo Defensores Unidos Actif 100 / 107 40% 1 09.12.2026 -
Rodrigo Rey Independiente Actif 139 / 135 40% 1 01.08.2026 -
Franco Petroli Lanús Actif 135 / 119 40% 1 01.08.2026 -